sensor_id;sensor_type;location;lat;lon;timestamp;P1;durP1;ratioP1;P2;durP2;ratioP2
69569;SDS011;56781;42.292;23.146;2023-04-06T00:01:42;12.73;;;5.88;;
69569;SDS011;56781;42.292;23.146;2023-04-06T00:04:09;12.10;;;5.82;;
69569;SDS011;56781;42.292;23.146;2023-04-06T00:06:36;10.30;;;5.30;;
69569;SDS011;56781;42.292;23.146;2023-04-06T00:09:03;12.23;;;5.83;;
69569;SDS011;56781;42.292;23.146;2023-04-06T00:11:31;11.63;;;5.65;;
69569;SDS011;56781;42.292;23.146;2023-04-06T00:13:58;11.18;;;5.45;;
69569;SDS011;56781;42.292;23.146;2023-04-06T00:16:25;11.13;;;5.57;;
69569;SDS011;56781;42.292;23.146;2023-04-06T00:18:55;12.75;;;6.65;;
69569;SDS011;56781;42.292;23.146;2023-04-06T00:21:23;11.47;;;6.30;;
69569;SDS011;56781;42.292;23.146;2023-04-06T00:23:50;10.55;;;5.10;;
69569;SDS011;56781;42.292;23.146;2023-04-06T00:26:18;15.88;;;7.55;;
69569;SDS011;56781;42.292;23.146;2023-04-06T00:28:46;13.55;;;6.80;;
69569;SDS011;56781;42.292;23.146;2023-04-06T00:31:13;14.60;;;7.35;;
69569;SDS011;56781;42.292;23.146;2023-04-06T00:33:41;13.60;;;6.70;;
69569;SDS011;56781;42.292;23.146;2023-04-06T00:36:08;14.50;;;6.68;;
69569;SDS011;56781;42.292;23.146;2023-04-06T00:38:35;14.98;;;7.25;;
69569;SDS011;56781;42.292;23.146;2023-04-06T00:41:03;17.27;;;7.65;;
69569;SDS011;56781;42.292;23.146;2023-04-06T00:43:32;14.27;;;7.72;;
69569;SDS011;56781;42.292;23.146;2023-04-06T00:45:59;19.87;;;9.37;;
69569;SDS011;56781;42.292;23.146;2023-04-06T00:48:26;18.17;;;8.40;;
69569;SDS011;56781;42.292;23.146;2023-04-06T00:50:53;19.17;;;9.10;;
69569;SDS011;56781;42.292;23.146;2023-04-06T00:53:20;17.20;;;8.02;;
69569;SDS011;56781;42.292;23.146;2023-04-06T00:55:48;17.60;;;8.50;;
69569;SDS011;56781;42.292;23.146;2023-04-06T00:58:15;19.10;;;9.33;;
69569;SDS011;56781;42.292;23.146;2023-04-06T01:00:42;17.63;;;8.85;;
69569;SDS011;56781;42.292;23.146;2023-04-06T01:03:09;20.23;;;10.07;;
69569;SDS011;56781;42.292;23.146;2023-04-06T01:05:36;19.25;;;9.15;;
69569;SDS011;56781;42.292;23.146;2023-04-06T01:08:07;19.17;;;8.85;;
69569;SDS011;56781;42.292;23.146;2023-04-06T01:10:34;15.80;;;7.00;;
69569;SDS011;56781;42.292;23.146;2023-04-06T01:13:01;17.13;;;7.40;;
69569;SDS011;56781;42.292;23.146;2023-04-06T01:15:29;15.25;;;7.93;;
69569;SDS011;56781;42.292;23.146;2023-04-06T01:17:56;15.85;;;7.68;;
69569;SDS011;56781;42.292;23.146;2023-04-06T01:20:24;16.90;;;8.32;;
69569;SDS011;56781;42.292;23.146;2023-04-06T01:22:51;18.37;;;9.03;;
69569;SDS011;56781;42.292;23.146;2023-04-06T01:25:18;16.77;;;8.57;;
69569;SDS011;56781;42.292;23.146;2023-04-06T01:27:45;17.08;;;8.98;;
69569;SDS011;56781;42.292;23.146;2023-04-06T01:30:12;22.60;;;11.40;;
69569;SDS011;56781;42.292;23.146;2023-04-06T01:32:40;19.52;;;9.30;;
69569;SDS011;56781;42.292;23.146;2023-04-06T01:35:07;18.93;;;8.40;;
69569;SDS011;56781;42.292;23.146;2023-04-06T01:37:35;15.63;;;7.85;;
69569;SDS011;56781;42.292;23.146;2023-04-06T01:40:02;16.95;;;7.55;;
69569;SDS011;56781;42.292;23.146;2023-04-06T01:42:29;18.83;;;9.25;;
69569;SDS011;56781;42.292;23.146;2023-04-06T01:44:56;19.40;;;9.68;;
69569;SDS011;56781;42.292;23.146;2023-04-06T01:47:24;18.87;;;8.80;;
69569;SDS011;56781;42.292;23.146;2023-04-06T01:49:51;16.88;;;8.77;;
69569;SDS011;56781;42.292;23.146;2023-04-06T01:52:18;19.17;;;8.85;;
69569;SDS011;56781;42.292;23.146;2023-04-06T01:54:45;19.85;;;9.27;;
69569;SDS011;56781;42.292;23.146;2023-04-06T01:57:12;21.42;;;10.10;;
69569;SDS011;56781;42.292;23.146;2023-04-06T01:59:39;17.03;;;8.50;;
69569;SDS011;56781;42.292;23.146;2023-04-06T02:02:07;16.25;;;8.27;;
69569;SDS011;56781;42.292;23.146;2023-04-06T02:04:34;18.63;;;9.15;;
69569;SDS011;56781;42.292;23.146;2023-04-06T02:07:01;17.92;;;7.88;;
69569;SDS011;56781;42.292;23.146;2023-04-06T02:09:28;18.35;;;8.80;;
69569;SDS011;56781;42.292;23.146;2023-04-06T02:15:11;13.75;;;6.57;;
69569;SDS011;56781;42.292;23.146;2023-04-06T02:17:40;14.77;;;6.97;;
69569;SDS011;56781;42.292;23.146;2023-04-06T02:20:08;14.68;;;7.07;;
69569;SDS011;56781;42.292;23.146;2023-04-06T02:22:35;17.35;;;8.00;;
69569;SDS011;56781;42.292;23.146;2023-04-06T02:25:02;19.67;;;8.83;;
69569;SDS011;56781;42.292;23.146;2023-04-06T02:27:30;17.65;;;9.40;;
69569;SDS011;56781;42.292;23.146;2023-04-06T02:29:57;17.83;;;8.68;;
69569;SDS011;56781;42.292;23.146;2023-04-06T02:32:24;17.13;;;7.13;;
69569;SDS011;56781;42.292;23.146;2023-04-06T02:34:51;13.43;;;6.25;;
69569;SDS011;56781;42.292;23.146;2023-04-06T02:37:18;12.53;;;5.83;;
69569;SDS011;56781;42.292;23.146;2023-04-06T02:39:46;12.35;;;5.82;;
69569;SDS011;56781;42.292;23.146;2023-04-06T02:42:14;14.25;;;5.85;;
69569;SDS011;56781;42.292;23.146;2023-04-06T02:44:42;10.93;;;5.28;;
69569;SDS011;56781;42.292;23.146;2023-04-06T02:47:09;13.05;;;6.03;;
69569;SDS011;56781;42.292;23.146;2023-04-06T02:49:36;13.97;;;7.10;;
69569;SDS011;56781;42.292;23.146;2023-04-06T02:52:03;14.00;;;6.22;;
69569;SDS011;56781;42.292;23.146;2023-04-06T02:54:31;14.10;;;6.93;;
69569;SDS011;56781;42.292;23.146;2023-04-06T02:56:58;13.00;;;6.85;;
69569;SDS011;56781;42.292;23.146;2023-04-06T02:59:25;13.02;;;5.60;;
69569;SDS011;56781;42.292;23.146;2023-04-06T03:01:52;12.63;;;5.80;;
69569;SDS011;56781;42.292;23.146;2023-04-06T03:04:20;13.65;;;5.90;;
69569;SDS011;56781;42.292;23.146;2023-04-06T03:06:49;13.77;;;5.88;;
69569;SDS011;56781;42.292;23.146;2023-04-06T03:09:16;11.25;;;5.82;;
69569;SDS011;56781;42.292;23.146;2023-04-06T03:11:43;14.82;;;6.30;;
69569;SDS011;56781;42.292;23.146;2023-04-06T03:14:10;15.47;;;6.70;;
69569;SDS011;56781;42.292;23.146;2023-04-06T03:16:38;13.70;;;6.15;;
69569;SDS011;56781;42.292;23.146;2023-04-06T03:19:05;11.10;;;5.47;;
69569;SDS011;56781;42.292;23.146;2023-04-06T03:21:32;14.45;;;5.90;;
69569;SDS011;56781;42.292;23.146;2023-04-06T03:23:59;14.20;;;5.88;;
69569;SDS011;56781;42.292;23.146;2023-04-06T03:26:27;10.83;;;5.20;;
69569;SDS011;56781;42.292;23.146;2023-04-06T03:28:54;12.57;;;6.50;;
69569;SDS011;56781;42.292;23.146;2023-04-06T03:31:21;13.82;;;6.72;;
69569;SDS011;56781;42.292;23.146;2023-04-06T03:33:48;16.70;;;5.95;;
69569;SDS011;56781;42.292;23.146;2023-04-06T03:36:15;13.02;;;5.78;;
69569;SDS011;56781;42.292;23.146;2023-04-06T03:38:42;10.67;;;5.47;;
69569;SDS011;56781;42.292;23.146;2023-04-06T03:41:10;12.57;;;5.70;;
69569;SDS011;56781;42.292;23.146;2023-04-06T03:43:37;11.77;;;5.90;;
69569;SDS011;56781;42.292;23.146;2023-04-06T03:46:04;13.30;;;5.65;;
69569;SDS011;56781;42.292;23.146;2023-04-06T03:48:31;10.70;;;5.57;;
69569;SDS011;56781;42.292;23.146;2023-04-06T03:50:58;13.00;;;6.30;;
69569;SDS011;56781;42.292;23.146;2023-04-06T03:53:25;15.07;;;7.15;;
69569;SDS011;56781;42.292;23.146;2023-04-06T03:55:53;14.68;;;6.63;;
69569;SDS011;56781;42.292;23.146;2023-04-06T03:58:20;13.25;;;6.30;;
69569;SDS011;56781;42.292;23.146;2023-04-06T04:00:47;15.82;;;6.70;;
69569;SDS011;56781;42.292;23.146;2023-04-06T04:03:14;15.30;;;6.37;;
69569;SDS011;56781;42.292;23.146;2023-04-06T04:05:42;15.95;;;7.40;;
69569;SDS011;56781;42.292;23.146;2023-04-06T04:08:09;56.42;;;23.60;;
69569;SDS011;56781;42.292;23.146;2023-04-06T04:10:37;26.25;;;13.43;;
69569;SDS011;56781;42.292;23.146;2023-04-06T04:13:04;19.52;;;8.93;;
69569;SDS011;56781;42.292;23.146;2023-04-06T04:15:31;21.10;;;8.13;;
69569;SDS011;56781;42.292;23.146;2023-04-06T04:17:58;19.33;;;7.18;;
69569;SDS011;56781;42.292;23.146;2023-04-06T04:20:25;12.68;;;6.43;;
69569;SDS011;56781;42.292;23.146;2023-04-06T04:22:52;13.32;;;5.90;;
69569;SDS011;56781;42.292;23.146;2023-04-06T04:25:20;13.88;;;6.30;;
69569;SDS011;56781;42.292;23.146;2023-04-06T04:27:47;14.20;;;6.37;;
69569;SDS011;56781;42.292;23.146;2023-04-06T04:30:14;14.65;;;6.90;;
69569;SDS011;56781;42.292;23.146;2023-04-06T04:32:41;15.18;;;7.72;;
69569;SDS011;56781;42.292;23.146;2023-04-06T04:35:09;16.60;;;7.53;;
69569;SDS011;56781;42.292;23.146;2023-04-06T04:37:36;13.02;;;6.30;;
69569;SDS011;56781;42.292;23.146;2023-04-06T04:40:03;15.23;;;6.97;;
69569;SDS011;56781;42.292;23.146;2023-04-06T04:42:31;13.20;;;6.32;;
69569;SDS011;56781;42.292;23.146;2023-04-06T04:44:58;15.35;;;6.78;;
69569;SDS011;56781;42.292;23.146;2023-04-06T04:47:25;13.23;;;6.65;;
69569;SDS011;56781;42.292;23.146;2023-04-06T04:49:53;12.20;;;6.55;;
69569;SDS011;56781;42.292;23.146;2023-04-06T04:52:20;15.30;;;7.27;;
69569;SDS011;56781;42.292;23.146;2023-04-06T04:54:47;14.70;;;7.55;;
69569;SDS011;56781;42.292;23.146;2023-04-06T04:57:14;16.15;;;7.88;;
69569;SDS011;56781;42.292;23.146;2023-04-06T04:59:42;16.42;;;7.22;;
69569;SDS011;56781;42.292;23.146;2023-04-06T05:02:09;15.20;;;7.70;;
69569;SDS011;56781;42.292;23.146;2023-04-06T05:04:36;17.43;;;7.93;;
69569;SDS011;56781;42.292;23.146;2023-04-06T05:07:07;19.73;;;8.27;;
69569;SDS011;56781;42.292;23.146;2023-04-06T05:09:35;16.75;;;7.97;;
69569;SDS011;56781;42.292;23.146;2023-04-06T05:12:02;17.13;;;8.27;;
69569;SDS011;56781;42.292;23.146;2023-04-06T05:14:29;17.73;;;8.02;;
69569;SDS011;56781;42.292;23.146;2023-04-06T05:16:57;16.10;;;8.30;;
69569;SDS011;56781;42.292;23.146;2023-04-06T05:19:24;18.33;;;9.32;;
69569;SDS011;56781;42.292;23.146;2023-04-06T05:21:51;19.52;;;10.30;;
69569;SDS011;56781;42.292;23.146;2023-04-06T05:24:19;11.73;;;6.47;;
69569;SDS011;56781;42.292;23.146;2023-04-06T05:26:46;15.73;;;8.10;;
69569;SDS011;56781;42.292;23.146;2023-04-06T05:29:13;13.10;;;5.60;;
69569;SDS011;56781;42.292;23.146;2023-04-06T05:31:41;11.35;;;5.50;;
69569;SDS011;56781;42.292;23.146;2023-04-06T05:34:09;14.35;;;6.60;;
69569;SDS011;56781;42.292;23.146;2023-04-06T05:36:36;13.18;;;6.03;;
69569;SDS011;56781;42.292;23.146;2023-04-06T05:39:04;11.18;;;6.30;;
69569;SDS011;56781;42.292;23.146;2023-04-06T05:41:31;15.20;;;6.93;;
69569;SDS011;56781;42.292;23.146;2023-04-06T05:43:58;14.70;;;7.63;;
69569;SDS011;56781;42.292;23.146;2023-04-06T05:46:25;8.88;;;4.22;;
69569;SDS011;56781;42.292;23.146;2023-04-06T05:48:53;9.85;;;4.82;;
69569;SDS011;56781;42.292;23.146;2023-04-06T05:51:20;12.68;;;5.47;;
69569;SDS011;56781;42.292;23.146;2023-04-06T05:53:47;10.83;;;5.20;;
69569;SDS011;56781;42.292;23.146;2023-04-06T05:56:14;10.23;;;5.22;;
69569;SDS011;56781;42.292;23.146;2023-04-06T05:58:41;10.57;;;5.20;;
69569;SDS011;56781;42.292;23.146;2023-04-06T06:01:08;10.73;;;5.40;;
69569;SDS011;56781;42.292;23.146;2023-04-06T06:03:36;10.25;;;4.93;;
69569;SDS011;56781;42.292;23.146;2023-04-06T06:06:03;9.57;;;4.90;;
69569;SDS011;56781;42.292;23.146;2023-04-06T06:08:31;9.75;;;5.13;;
69569;SDS011;56781;42.292;23.146;2023-04-06T06:10:58;9.77;;;4.75;;
69569;SDS011;56781;42.292;23.146;2023-04-06T06:13:25;9.90;;;4.93;;
69569;SDS011;56781;42.292;23.146;2023-04-06T06:15:53;13.45;;;7.03;;
69569;SDS011;56781;42.292;23.146;2023-04-06T06:18:20;9.57;;;4.50;;
69569;SDS011;56781;42.292;23.146;2023-04-06T06:20:47;11.10;;;5.03;;
69569;SDS011;56781;42.292;23.146;2023-04-06T06:23:14;10.82;;;5.63;;
69569;SDS011;56781;42.292;23.146;2023-04-06T06:25:41;10.00;;;4.93;;
69569;SDS011;56781;42.292;23.146;2023-04-06T06:28:08;13.80;;;6.97;;
69569;SDS011;56781;42.292;23.146;2023-04-06T06:30:36;14.57;;;8.30;;
69569;SDS011;56781;42.292;23.146;2023-04-06T06:33:03;10.57;;;4.95;;
69569;SDS011;56781;42.292;23.146;2023-04-06T06:35:30;13.35;;;5.53;;
69569;SDS011;56781;42.292;23.146;2023-04-06T06:37:57;13.93;;;6.60;;
69569;SDS011;56781;42.292;23.146;2023-04-06T06:40:24;20.20;;;9.35;;
69569;SDS011;56781;42.292;23.146;2023-04-06T06:42:53;14.60;;;6.73;;
69569;SDS011;56781;42.292;23.146;2023-04-06T06:45:21;7.85;;;4.25;;
69569;SDS011;56781;42.292;23.146;2023-04-06T06:47:48;7.88;;;4.05;;
69569;SDS011;56781;42.292;23.146;2023-04-06T06:50:16;7.00;;;3.58;;
69569;SDS011;56781;42.292;23.146;2023-04-06T06:52:44;8.02;;;4.30;;
69569;SDS011;56781;42.292;23.146;2023-04-06T06:55:11;10.20;;;5.83;;
69569;SDS011;56781;42.292;23.146;2023-04-06T06:57:38;10.40;;;5.20;;
69569;SDS011;56781;42.292;23.146;2023-04-06T07:00:06;8.73;;;5.35;;
69569;SDS011;56781;42.292;23.146;2023-04-06T07:02:35;8.23;;;4.50;;
69569;SDS011;56781;42.292;23.146;2023-04-06T07:05:02;8.52;;;4.53;;
69569;SDS011;56781;42.292;23.146;2023-04-06T07:07:50;9.50;;;4.07;;
69569;SDS011;56781;42.292;23.146;2023-04-06T07:10:17;7.13;;;4.00;;
69569;SDS011;56781;42.292;23.146;2023-04-06T07:12:44;8.38;;;4.10;;
69569;SDS011;56781;42.292;23.146;2023-04-06T07:15:12;8.88;;;3.75;;
69569;SDS011;56781;42.292;23.146;2023-04-06T07:17:39;6.97;;;3.65;;
69569;SDS011;56781;42.292;23.146;2023-04-06T07:20:12;8.17;;;3.43;;
69569;SDS011;56781;42.292;23.146;2023-04-06T07:22:40;7.88;;;3.33;;
69569;SDS011;56781;42.292;23.146;2023-04-06T07:25:09;7.85;;;3.75;;
69569;SDS011;56781;42.292;23.146;2023-04-06T07:27:37;7.88;;;3.92;;
69569;SDS011;56781;42.292;23.146;2023-04-06T07:30:04;9.57;;;3.63;;
69569;SDS011;56781;42.292;23.146;2023-04-06T07:32:32;8.40;;;3.83;;
69569;SDS011;56781;42.292;23.146;2023-04-06T07:35:01;7.88;;;4.07;;
69569;SDS011;56781;42.292;23.146;2023-04-06T07:37:29;7.80;;;3.38;;
69569;SDS011;56781;42.292;23.146;2023-04-06T07:39:56;9.57;;;4.43;;
69569;SDS011;56781;42.292;23.146;2023-04-06T07:42:23;8.68;;;3.80;;
69569;SDS011;56781;42.292;23.146;2023-04-06T07:44:50;6.10;;;2.50;;
69569;SDS011;56781;42.292;23.146;2023-04-06T07:47:17;7.53;;;3.70;;
69569;SDS011;56781;42.292;23.146;2023-04-06T07:49:45;8.07;;;4.28;;
69569;SDS011;56781;42.292;23.146;2023-04-06T07:52:12;9.32;;;3.72;;
69569;SDS011;56781;42.292;23.146;2023-04-06T07:54:40;5.57;;;2.78;;
69569;SDS011;56781;42.292;23.146;2023-04-06T07:57:08;7.80;;;3.47;;
69569;SDS011;56781;42.292;23.146;2023-04-06T07:59:35;8.98;;;3.92;;
69569;SDS011;56781;42.292;23.146;2023-04-06T08:02:02;7.18;;;3.42;;
69569;SDS011;56781;42.292;23.146;2023-04-06T08:04:30;7.78;;;3.88;;
69569;SDS011;56781;42.292;23.146;2023-04-06T08:06:57;7.80;;;4.40;;
69569;SDS011;56781;42.292;23.146;2023-04-06T08:09:24;6.70;;;3.63;;
69569;SDS011;56781;42.292;23.146;2023-04-06T08:11:51;7.50;;;4.15;;
69569;SDS011;56781;42.292;23.146;2023-04-06T08:14:18;8.32;;;4.32;;
69569;SDS011;56781;42.292;23.146;2023-04-06T08:16:46;6.78;;;3.30;;
69569;SDS011;56781;42.292;23.146;2023-04-06T08:19:13;8.38;;;4.80;;
69569;SDS011;56781;42.292;23.146;2023-04-06T08:21:43;7.00;;;4.10;;
69569;SDS011;56781;42.292;23.146;2023-04-06T08:24:11;8.90;;;4.85;;
69569;SDS011;56781;42.292;23.146;2023-04-06T08:26:40;10.93;;;5.00;;
69569;SDS011;56781;42.292;23.146;2023-04-06T08:29:08;11.30;;;5.60;;
69569;SDS011;56781;42.292;23.146;2023-04-06T08:31:35;8.45;;;4.20;;
69569;SDS011;56781;42.292;23.146;2023-04-06T08:34:03;9.23;;;4.90;;
69569;SDS011;56781;42.292;23.146;2023-04-06T08:36:32;12.70;;;6.88;;
69569;SDS011;56781;42.292;23.146;2023-04-06T08:39:00;7.50;;;4.03;;
69569;SDS011;56781;42.292;23.146;2023-04-06T08:41:27;7.68;;;4.15;;
69569;SDS011;56781;42.292;23.146;2023-04-06T08:43:58;11.35;;;5.50;;
69569;SDS011;56781;42.292;23.146;2023-04-06T08:46:28;11.73;;;6.17;;
69569;SDS011;56781;42.292;23.146;2023-04-06T08:48:57;8.60;;;4.60;;
69569;SDS011;56781;42.292;23.146;2023-04-06T08:51:26;9.90;;;5.10;;
69569;SDS011;56781;42.292;23.146;2023-04-06T08:53:55;10.27;;;5.78;;
69569;SDS011;56781;42.292;23.146;2023-04-06T08:56:24;10.07;;;5.75;;
69569;SDS011;56781;42.292;23.146;2023-04-06T08:58:53;13.23;;;6.70;;
69569;SDS011;56781;42.292;23.146;2023-04-06T09:01:22;12.63;;;6.45;;
69569;SDS011;56781;42.292;23.146;2023-04-06T09:03:59;11.35;;;6.32;;
69569;SDS011;56781;42.292;23.146;2023-04-06T09:06:27;11.95;;;5.75;;
69569;SDS011;56781;42.292;23.146;2023-04-06T09:08:54;10.23;;;4.95;;
69569;SDS011;56781;42.292;23.146;2023-04-06T09:11:23;11.43;;;5.77;;
69569;SDS011;56781;42.292;23.146;2023-04-06T09:13:51;11.35;;;6.05;;
69569;SDS011;56781;42.292;23.146;2023-04-06T09:16:20;9.48;;;4.93;;
69569;SDS011;56781;42.292;23.146;2023-04-06T09:18:48;10.00;;;5.25;;
69569;SDS011;56781;42.292;23.146;2023-04-06T09:21:19;9.95;;;4.97;;
69569;SDS011;56781;42.292;23.146;2023-04-06T09:24:00;12.70;;;5.87;;
69569;SDS011;56781;42.292;23.146;2023-04-06T09:26:28;10.80;;;5.97;;
69569;SDS011;56781;42.292;23.146;2023-04-06T09:28:56;12.75;;;6.28;;
69569;SDS011;56781;42.292;23.146;2023-04-06T09:31:26;14.43;;;5.90;;
69569;SDS011;56781;42.292;23.146;2023-04-06T09:33:55;26.50;;;9.00;;
69569;SDS011;56781;42.292;23.146;2023-04-06T09:36:32;22.80;;;9.00;;
69569;SDS011;56781;42.292;23.146;2023-04-06T09:39:02;19.33;;;6.63;;
69569;SDS011;56781;42.292;23.146;2023-04-06T09:41:31;20.20;;;8.27;;
69569;SDS011;56781;42.292;23.146;2023-04-06T09:44:03;28.10;;;9.70;;
69569;SDS011;56781;42.292;23.146;2023-04-06T09:46:33;10.70;;;5.22;;
69569;SDS011;56781;42.292;23.146;2023-04-06T09:49:23;14.03;;;6.03;;
69569;SDS011;56781;42.292;23.146;2023-04-06T09:51:54;8.40;;;4.60;;
69569;SDS011;56781;42.292;23.146;2023-04-06T09:54:26;15.65;;;6.95;;
69569;SDS011;56781;42.292;23.146;2023-04-06T10:00:05;12.32;;;5.55;;
69569;SDS011;56781;42.292;23.146;2023-04-06T10:05:42;10.63;;;5.05;;
69569;SDS011;56781;42.292;23.146;2023-04-06T10:08:16;6.57;;;3.70;;
69569;SDS011;56781;42.292;23.146;2023-04-06T10:10:45;10.48;;;5.05;;
69569;SDS011;56781;42.292;23.146;2023-04-06T10:13:13;10.63;;;5.40;;
69569;SDS011;56781;42.292;23.146;2023-04-06T10:15:41;14.23;;;6.33;;
69569;SDS011;56781;42.292;23.146;2023-04-06T10:18:09;8.60;;;4.63;;
69569;SDS011;56781;42.292;23.146;2023-04-06T10:20:51;8.00;;;4.53;;
69569;SDS011;56781;42.292;23.146;2023-04-06T10:23:26;10.00;;;4.75;;
69569;SDS011;56781;42.292;23.146;2023-04-06T10:25:59;8.85;;;4.93;;
69569;SDS011;56781;42.292;23.146;2023-04-06T10:28:31;7.63;;;4.50;;
69569;SDS011;56781;42.292;23.146;2023-04-06T10:31:01;9.18;;;4.82;;
69569;SDS011;56781;42.292;23.146;2023-04-06T10:33:31;8.10;;;4.35;;
69569;SDS011;56781;42.292;23.146;2023-04-06T10:36:09;8.23;;;4.43;;
69569;SDS011;56781;42.292;23.146;2023-04-06T10:38:40;9.98;;;4.20;;
69569;SDS011;56781;42.292;23.146;2023-04-06T10:41:09;10.10;;;4.10;;
69569;SDS011;56781;42.292;23.146;2023-04-06T10:43:38;8.63;;;4.93;;
69569;SDS011;56781;42.292;23.146;2023-04-06T10:46:07;9.30;;;4.65;;
69569;SDS011;56781;42.292;23.146;2023-04-06T10:48:36;8.35;;;4.30;;
69569;SDS011;56781;42.292;23.146;2023-04-06T10:51:13;8.20;;;4.28;;
69569;SDS011;56781;42.292;23.146;2023-04-06T10:53:42;8.60;;;4.53;;
69569;SDS011;56781;42.292;23.146;2023-04-06T10:56:14;9.52;;;4.85;;
69569;SDS011;56781;42.292;23.146;2023-04-06T10:58:46;8.38;;;4.88;;
69569;SDS011;56781;42.292;23.146;2023-04-06T11:01:18;6.97;;;3.28;;
69569;SDS011;56781;42.292;23.146;2023-04-06T11:03:50;7.85;;;4.03;;
69569;SDS011;56781;42.292;23.146;2023-04-06T11:06:24;6.40;;;2.77;;
69569;SDS011;56781;42.292;23.146;2023-04-06T11:08:53;8.90;;;4.10;;
69569;SDS011;56781;42.292;23.146;2023-04-06T11:11:22;7.18;;;3.53;;
69569;SDS011;56781;42.292;23.146;2023-04-06T11:13:54;7.65;;;3.83;;
69569;SDS011;56781;42.292;23.146;2023-04-06T11:16:26;9.18;;;4.40;;
69569;SDS011;56781;42.292;23.146;2023-04-06T11:19:00;8.70;;;4.30;;
69569;SDS011;56781;42.292;23.146;2023-04-06T11:21:33;8.85;;;4.57;;
69569;SDS011;56781;42.292;23.146;2023-04-06T11:24:09;8.40;;;3.97;;
69569;SDS011;56781;42.292;23.146;2023-04-06T11:26:41;10.27;;;4.90;;
69569;SDS011;56781;42.292;23.146;2023-04-06T11:29:11;9.85;;;4.45;;
69569;SDS011;56781;42.292;23.146;2023-04-06T11:31:39;8.57;;;4.43;;
69569;SDS011;56781;42.292;23.146;2023-04-06T11:34:11;10.60;;;5.32;;
69569;SDS011;56781;42.292;23.146;2023-04-06T11:36:39;7.50;;;3.75;;
69569;SDS011;56781;42.292;23.146;2023-04-06T11:39:08;8.20;;;3.58;;
69569;SDS011;56781;42.292;23.146;2023-04-06T11:41:36;10.30;;;5.00;;
69569;SDS011;56781;42.292;23.146;2023-04-06T11:44:04;7.30;;;3.83;;
69569;SDS011;56781;42.292;23.146;2023-04-06T11:46:32;7.63;;;3.17;;
69569;SDS011;56781;42.292;23.146;2023-04-06T11:49:00;8.98;;;4.22;;
69569;SDS011;56781;42.292;23.146;2023-04-06T11:51:28;6.13;;;2.78;;
69569;SDS011;56781;42.292;23.146;2023-04-06T11:53:55;9.35;;;4.90;;
69569;SDS011;56781;42.292;23.146;2023-04-06T11:56:25;6.53;;;2.93;;
69569;SDS011;56781;42.292;23.146;2023-04-06T11:58:56;9.00;;;4.63;;
69569;SDS011;56781;42.292;23.146;2023-04-06T12:01:25;11.07;;;5.43;;
69569;SDS011;56781;42.292;23.146;2023-04-06T12:03:53;7.43;;;3.83;;
69569;SDS011;56781;42.292;23.146;2023-04-06T12:06:20;9.88;;;4.78;;
69569;SDS011;56781;42.292;23.146;2023-04-06T12:08:48;9.20;;;4.90;;
69569;SDS011;56781;42.292;23.146;2023-04-06T12:11:15;11.15;;;5.13;;
69569;SDS011;56781;42.292;23.146;2023-04-06T12:13:42;11.70;;;5.40;;
69569;SDS011;56781;42.292;23.146;2023-04-06T12:16:12;10.95;;;5.47;;
69569;SDS011;56781;42.292;23.146;2023-04-06T12:18:39;10.82;;;5.45;;
69569;SDS011;56781;42.292;23.146;2023-04-06T12:21:07;9.20;;;4.60;;
69569;SDS011;56781;42.292;23.146;2023-04-06T12:23:34;8.77;;;4.35;;
69569;SDS011;56781;42.292;23.146;2023-04-06T12:26:01;11.75;;;4.90;;
69569;SDS011;56781;42.292;23.146;2023-04-06T12:28:29;11.27;;;4.90;;
69569;SDS011;56781;42.292;23.146;2023-04-06T12:30:56;11.30;;;5.68;;
69569;SDS011;56781;42.292;23.146;2023-04-06T12:33:23;10.87;;;4.27;;
69569;SDS011;56781;42.292;23.146;2023-04-06T12:35:51;11.43;;;4.85;;
69569;SDS011;56781;42.292;23.146;2023-04-06T12:38:18;9.05;;;4.53;;
69569;SDS011;56781;42.292;23.146;2023-04-06T12:40:46;6.00;;;2.97;;
69569;SDS011;56781;42.292;23.146;2023-04-06T12:43:14;12.18;;;5.05;;
69569;SDS011;56781;42.292;23.146;2023-04-06T12:45:41;9.40;;;5.10;;
69569;SDS011;56781;42.292;23.146;2023-04-06T12:48:08;9.73;;;5.05;;
69569;SDS011;56781;42.292;23.146;2023-04-06T12:50:36;9.18;;;5.20;;
69569;SDS011;56781;42.292;23.146;2023-04-06T12:53:03;8.32;;;4.03;;
69569;SDS011;56781;42.292;23.146;2023-04-06T12:55:30;8.98;;;4.47;;
69569;SDS011;56781;42.292;23.146;2023-04-06T12:57:58;9.30;;;4.57;;
69569;SDS011;56781;42.292;23.146;2023-04-06T13:00:25;9.07;;;4.50;;
69569;SDS011;56781;42.292;23.146;2023-04-06T13:02:53;9.07;;;4.53;;
69569;SDS011;56781;42.292;23.146;2023-04-06T13:05:20;11.77;;;5.25;;
69569;SDS011;56781;42.292;23.146;2023-04-06T13:07:47;10.65;;;5.25;;
69569;SDS011;56781;42.292;23.146;2023-04-06T13:10:14;13.83;;;5.17;;
69569;SDS011;56781;42.292;23.146;2023-04-06T13:12:42;9.88;;;5.03;;
69569;SDS011;56781;42.292;23.146;2023-04-06T13:15:09;14.70;;;5.88;;
69569;SDS011;56781;42.292;23.146;2023-04-06T13:17:36;11.25;;;5.50;;
69569;SDS011;56781;42.292;23.146;2023-04-06T13:20:04;10.80;;;5.50;;
69569;SDS011;56781;42.292;23.146;2023-04-06T13:22:32;9.97;;;5.60;;
69569;SDS011;56781;42.292;23.146;2023-04-06T13:24:59;11.57;;;5.70;;
69569;SDS011;56781;42.292;23.146;2023-04-06T13:27:26;12.40;;;6.20;;
69569;SDS011;56781;42.292;23.146;2023-04-06T13:29:54;9.60;;;5.20;;
69569;SDS011;56781;42.292;23.146;2023-04-06T13:32:22;10.55;;;5.80;;
69569;SDS011;56781;42.292;23.146;2023-04-06T13:34:49;10.97;;;5.43;;
69569;SDS011;56781;42.292;23.146;2023-04-06T13:37:16;11.30;;;5.18;;
69569;SDS011;56781;42.292;23.146;2023-04-06T13:39:44;9.15;;;4.88;;
69569;SDS011;56781;42.292;23.146;2023-04-06T13:42:11;11.27;;;5.88;;
69569;SDS011;56781;42.292;23.146;2023-04-06T13:44:38;10.93;;;5.78;;
69569;SDS011;56781;42.292;23.146;2023-04-06T13:47:05;13.17;;;6.63;;
69569;SDS011;56781;42.292;23.146;2023-04-06T13:49:33;10.80;;;5.60;;
69569;SDS011;56781;42.292;23.146;2023-04-06T13:52:00;10.93;;;5.55;;
69569;SDS011;56781;42.292;23.146;2023-04-06T13:54:27;10.10;;;5.45;;
69569;SDS011;56781;42.292;23.146;2023-04-06T13:56:54;10.40;;;5.43;;
69569;SDS011;56781;42.292;23.146;2023-04-06T13:59:23;11.13;;;5.70;;
69569;SDS011;56781;42.292;23.146;2023-04-06T14:01:50;10.68;;;5.20;;
69569;SDS011;56781;42.292;23.146;2023-04-06T14:04:17;10.13;;;4.95;;
69569;SDS011;56781;42.292;23.146;2023-04-06T14:06:45;8.73;;;5.55;;
69569;SDS011;56781;42.292;23.146;2023-04-06T14:09:12;9.73;;;5.20;;
69569;SDS011;56781;42.292;23.146;2023-04-06T14:11:40;9.97;;;5.77;;
69569;SDS011;56781;42.292;23.146;2023-04-06T14:14:07;9.82;;;5.22;;
69569;SDS011;56781;42.292;23.146;2023-04-06T14:16:34;9.43;;;5.43;;
69569;SDS011;56781;42.292;23.146;2023-04-06T14:19:01;11.50;;;5.25;;
69569;SDS011;56781;42.292;23.146;2023-04-06T14:21:29;9.68;;;5.20;;
69569;SDS011;56781;42.292;23.146;2023-04-06T14:23:56;11.20;;;5.67;;
69569;SDS011;56781;42.292;23.146;2023-04-06T14:26:25;9.95;;;5.18;;
69569;SDS011;56781;42.292;23.146;2023-04-06T14:28:52;13.43;;;5.63;;
69569;SDS011;56781;42.292;23.146;2023-04-06T14:31:20;10.27;;;5.60;;
69569;SDS011;56781;42.292;23.146;2023-04-06T14:33:47;30.80;;;11.73;;
69569;SDS011;56781;42.292;23.146;2023-04-06T14:36:14;21.23;;;9.20;;
69569;SDS011;56781;42.292;23.146;2023-04-06T14:38:41;9.93;;;5.13;;
69569;SDS011;56781;42.292;23.146;2023-04-06T14:41:14;9.63;;;5.57;;